createdAt,value
2023-02-11T00:01:02.219Z,101903.75
2023-02-11T00:02:34.927Z,101905.78
2023-02-11T00:04:07.691Z,101904.28
2023-02-11T00:05:39.816Z,101902.78
2023-02-11T00:07:11.868Z,101901.91
2023-02-11T00:08:44.381Z,101901.13
2023-02-11T00:10:16.679Z,101902.00
2023-02-11T00:11:48.826Z,101894.34
2023-02-11T00:13:21.075Z,101895.84
2023-02-11T00:14:53.155Z,101887.53
2023-02-11T00:16:25.205Z,101888.16
2023-02-11T00:17:57.367Z,101893.94
2023-02-11T00:19:29.330Z,101890.66
2023-02-11T00:21:05.738Z,101893.19
2023-02-11T00:22:37.706Z,101895.72
2023-02-11T00:24:09.720Z,101895.72
2023-02-11T00:25:43.069Z,101900.59
2023-02-11T00:27:15.193Z,101897.69
2023-02-11T00:28:48.160Z,101897.56
2023-02-11T00:30:20.367Z,101897.56
2023-02-11T00:31:52.542Z,101894.31
2023-02-11T00:33:25.289Z,101888.50
2023-02-11T00:34:57.297Z,101895.31
2023-02-11T00:36:30.209Z,101894.41
2023-02-11T00:38:02.260Z,101893.41
2023-02-11T00:39:34.296Z,101900.34
2023-02-11T00:41:06.408Z,101896.06
2023-02-11T00:42:38.468Z,101899.44
2023-02-11T00:44:11.274Z,101892.53
2023-02-11T00:45:43.253Z,101896.94
2023-02-11T00:47:15.287Z,101891.50
2023-02-11T00:48:47.304Z,101892.13
2023-02-11T00:50:19.344Z,101894.50
2023-02-11T00:51:51.321Z,101889.38
2023-02-11T00:53:23.378Z,101894.28
2023-02-11T00:54:55.394Z,101881.28
2023-02-11T00:56:27.611Z,101886.31
2023-02-11T00:58:00.447Z,101896.66
2023-02-11T00:59:32.440Z,101893.41
2023-02-11T01:01:04.890Z,101893.63
2023-02-11T01:02:37.000Z,101887.88
2023-02-11T01:04:09.072Z,101889.38
2023-02-11T01:05:41.197Z,101890.38
2023-02-11T01:07:13.320Z,101887.59
2023-02-11T01:08:45.364Z,101889.84
2023-02-11T01:10:17.489Z,101886.44
2023-02-11T01:11:49.544Z,101883.53
2023-02-11T01:13:21.640Z,101874.72
2023-02-11T01:14:53.669Z,101878.34
2023-02-11T01:16:25.751Z,101881.63
2023-02-11T01:17:57.816Z,101878.25
2023-02-11T01:19:29.809Z,101872.44
2023-02-11T01:21:01.853Z,101872.06
2023-02-11T01:22:34.748Z,101878.44
2023-02-11T01:24:07.055Z,101866.09
2023-02-11T01:25:39.080Z,101873.38
2023-02-11T01:27:11.063Z,101868.56
2023-02-11T01:28:43.100Z,101864.75
2023-02-11T01:30:15.550Z,101868.19
2023-02-11T01:31:47.905Z,101864.03
2023-02-11T01:33:20.616Z,101867.41
2023-02-11T01:34:52.672Z,101870.69
2023-02-11T01:36:24.696Z,101869.78
2023-02-11T01:37:56.648Z,101869.41
2023-02-11T01:39:28.682Z,101865.72
2023-02-11T01:41:03.125Z,101866.88
2023-02-11T01:42:35.155Z,101868.16
2023-02-11T01:44:33.442Z,101871.75
2023-02-11T01:46:14.298Z,101865.50
2023-02-11T01:47:46.621Z,101867.25
2023-02-11T01:49:31.542Z,101872.31
2023-02-11T01:51:07.850Z,101875.44
2023-02-11T01:52:41.378Z,101871.28
2023-02-11T01:54:33.299Z,101873.22
2023-02-11T01:56:24.527Z,101875.28
2023-02-11T01:58:01.111Z,101875.09
2023-02-11T01:59:39.055Z,101873.31
2023-02-11T02:01:13.905Z,101878.63
2023-02-11T02:03:05.700Z,101877.63
2023-02-11T02:04:42.960Z,101872.53
2023-02-11T02:06:44.976Z,101868.00
2023-02-11T02:08:32.917Z,101879.81
2023-02-11T02:10:08.571Z,101880.81
2023-02-11T02:11:40.572Z,101882.59
2023-02-11T02:13:12.930Z,101870.66
2023-02-11T02:14:44.891Z,101873.19
2023-02-11T02:16:20.489Z,101872.78
2023-02-11T02:18:01.229Z,101876.31
2023-02-11T02:19:58.273Z,101864.75
2023-02-11T02:22:00.879Z,101862.78
2023-02-11T02:24:10.697Z,101866.44
2023-02-11T02:26:31.011Z,101873.25
2023-02-11T02:28:14.934Z,101871.81
2023-02-11T02:30:01.973Z,101868.56
2023-02-11T02:32:06.076Z,101873.41
2023-02-11T02:34:01.944Z,101870.53
2023-02-11T02:35:48.956Z,101868.09
2023-02-11T02:37:45.157Z,101870.63
2023-02-11T02:39:27.977Z,101872.38
2023-02-11T02:41:28.972Z,101867.19
2023-02-11T02:43:02.526Z,101864.41
2023-02-11T02:44:34.420Z,101871.22
2023-02-11T02:46:23.958Z,101865.59
2023-02-11T02:47:56.417Z,101866.78
2023-02-11T02:49:28.522Z,101864.66
2023-02-11T02:51:30.649Z,101862.13
2023-02-11T02:53:24.749Z,101861.84
2023-02-11T02:54:56.657Z,101864.22
2023-02-11T02:56:55.763Z,101862.38
2023-02-11T02:58:44.308Z,101854.84
2023-02-11T03:00:33.485Z,101860.63
2023-02-11T03:02:30.736Z,101863.63
2023-02-11T03:04:30.074Z,101863.34
2023-02-11T03:06:12.788Z,101861.03
2023-02-11T03:07:51.997Z,101867.09
2023-02-11T03:09:32.552Z,101862.78
2023-02-11T03:11:08.380Z,101862.53
2023-02-11T03:12:42.956Z,101863.56
2023-02-11T03:14:17.064Z,101864.28
2023-02-11T03:15:53.349Z,101874.81
2023-02-11T03:17:27.067Z,101866.53
2023-02-11T03:19:19.127Z,101872.84
2023-02-11T03:20:53.655Z,101865.06
2023-02-11T03:22:34.085Z,101862.53
2023-02-11T03:24:13.426Z,101864.13
2023-02-11T03:26:00.138Z,101868.09
2023-02-11T03:27:47.681Z,101870.00
2023-02-11T03:29:36.245Z,101857.56
2023-02-11T03:31:18.107Z,101861.22
2023-02-11T03:32:56.970Z,101858.84
2023-02-11T03:34:47.128Z,101854.16
2023-02-11T03:36:24.885Z,101851.56
2023-02-11T03:38:20.457Z,101857.97
2023-02-11T03:40:14.025Z,101852.53
2023-02-11T03:41:48.226Z,101852.25
2023-02-11T03:43:23.319Z,101848.00
2023-02-11T03:45:01.418Z,101853.03
2023-02-11T03:46:38.017Z,101856.56
2023-02-11T03:48:15.664Z,101845.13
2023-02-11T03:49:50.218Z,101839.47
2023-02-11T03:51:23.945Z,101841.41
2023-02-11T03:52:56.574Z,101839.75
2023-02-11T03:54:31.409Z,101842.00
2023-02-11T03:56:06.129Z,101836.56
2023-02-11T03:57:38.395Z,101839.56
2023-02-11T03:59:10.432Z,101846.50
2023-02-11T04:00:43.280Z,101842.47
2023-02-11T04:02:15.245Z,101841.88
2023-02-11T04:03:47.325Z,101839.22
2023-02-11T04:05:19.431Z,101839.38
2023-02-11T04:06:51.379Z,101837.44
2023-02-11T04:08:23.319Z,101836.84
2023-02-11T04:09:55.428Z,101841.94
2023-02-11T04:11:27.475Z,101852.88
2023-02-11T04:12:59.618Z,101850.50
2023-02-11T04:14:31.646Z,101837.41
2023-02-11T04:16:03.828Z,101836.97
2023-02-11T04:17:36.121Z,101840.09
2023-02-11T04:19:08.306Z,101839.94
2023-02-11T04:20:40.384Z,101840.97
2023-02-11T04:22:12.384Z,101827.66
2023-02-11T04:23:44.349Z,101833.88
2023-02-11T04:25:16.516Z,101831.22
2023-02-11T04:26:48.522Z,101827.13
2023-02-11T04:28:20.615Z,101820.94
2023-02-11T04:29:52.685Z,101828.47
2023-02-11T04:31:24.897Z,101819.44
2023-02-11T04:32:58.842Z,101825.78
2023-02-11T04:34:31.045Z,101819.72
2023-02-11T04:36:03.155Z,101820.88
2023-02-11T04:37:36.025Z,101822.16
2023-02-11T04:39:08.328Z,101823.66
2023-02-11T04:40:40.901Z,101819.81
2023-02-11T04:42:12.963Z,101817.16
2023-02-11T04:43:44.968Z,101818.63
2023-02-11T04:45:17.156Z,101813.78
2023-02-11T04:46:49.188Z,101810.63
2023-02-11T04:48:21.108Z,101808.09
2023-02-11T04:49:53.201Z,101808.97
2023-02-11T04:51:25.512Z,101801.69
2023-02-11T04:52:57.594Z,101802.72
2023-02-11T04:54:29.763Z,101808.66
2023-02-11T04:56:02.114Z,101808.03
2023-02-11T04:57:34.175Z,101808.66
2023-02-11T04:59:06.374Z,101805.38
2023-02-11T05:00:38.362Z,101801.13
2023-02-11T05:02:10.309Z,101800.34
2023-02-11T05:03:43.644Z,101800.03
2023-02-11T05:05:15.645Z,101802.53
2023-02-11T05:06:47.712Z,101794.47
2023-02-11T05:08:19.640Z,101795.06
2023-02-11T05:09:51.809Z,101795.94
2023-02-11T05:11:25.735Z,101790.44
2023-02-11T05:12:57.816Z,101792.66
2023-02-11T05:14:29.947Z,101791.66
2023-02-11T05:16:02.079Z,101788.25
2023-02-11T05:17:34.065Z,101781.34
2023-02-11T05:19:06.180Z,101788.56
2023-02-11T05:20:39.314Z,101791.47
2023-02-11T05:22:11.407Z,101793.22
2023-02-11T05:23:43.690Z,101795.88
2023-02-11T05:25:15.725Z,101791.13
2023-02-11T05:26:47.711Z,101783.47
2023-02-11T05:28:19.693Z,101793.75
2023-02-11T05:29:51.657Z,101790.66
2023-02-11T05:31:23.729Z,101797.78
2023-02-11T05:32:55.709Z,101791.13
2023-02-11T05:34:27.722Z,101795.25
2023-02-11T05:36:00.832Z,101794.38
2023-02-11T05:37:32.868Z,101796.50
2023-02-11T05:39:04.958Z,101794.59
2023-02-11T05:40:37.029Z,101797.13
2023-02-11T05:42:09.068Z,101795.88
2023-02-11T05:43:41.104Z,101801.44
2023-02-11T05:45:13.127Z,101795.94
2023-02-11T05:46:45.296Z,101787.78
2023-02-11T05:48:18.121Z,101794.72
2023-02-11T05:49:50.113Z,101792.63
2023-02-11T05:51:22.227Z,101795.38
2023-02-11T05:52:54.345Z,101804.09
2023-02-11T05:54:26.678Z,101792.78
2023-02-11T05:55:58.749Z,101789.69
2023-02-11T05:57:30.747Z,101792.72
2023-02-11T05:59:02.852Z,101799.91
2023-02-11T06:00:35.548Z,101790.00
2023-02-11T06:02:11.102Z,101794.53
2023-02-11T06:03:43.149Z,101794.28
2023-02-11T06:05:15.268Z,101803.72
2023-02-11T06:06:47.373Z,101799.72
2023-02-11T06:08:19.568Z,101801.75
2023-02-11T06:09:51.537Z,101794.94
2023-02-11T06:11:23.840Z,101799.63
2023-02-11T06:12:55.953Z,101799.75
2023-02-11T06:14:27.956Z,101802.81
2023-02-11T06:16:01.444Z,101798.25
2023-02-11T06:17:34.054Z,101804.34
2023-02-11T06:19:06.222Z,101806.84
2023-02-11T06:20:41.122Z,101806.00
2023-02-11T06:22:13.096Z,101798.22
2023-02-11T06:23:45.204Z,101808.81
2023-02-11T06:25:17.433Z,101803.53
2023-02-11T06:26:49.780Z,101793.97
2023-02-11T06:28:21.814Z,101793.72
2023-02-11T06:29:53.882Z,101796.13
2023-02-11T06:31:26.026Z,101790.47
2023-02-11T06:32:58.181Z,101800.56
2023-02-11T06:34:30.323Z,101791.50
2023-02-11T06:36:02.789Z,101807.47
2023-02-11T06:37:35.687Z,101813.13
2023-02-11T06:39:08.594Z,101814.63
2023-02-11T06:40:40.613Z,101805.97
2023-02-11T06:42:12.693Z,101813.25
2023-02-11T06:45:23.810Z,101821.66
2023-02-11T06:46:55.840Z,101816.97
2023-02-11T06:48:27.929Z,101819.59
2023-02-11T06:49:59.944Z,101814.25
2023-02-11T06:51:31.989Z,101807.44
2023-02-11T06:53:04.037Z,101806.53
2023-02-11T06:54:36.269Z,101809.75
2023-02-11T06:56:11.292Z,101814.75
2023-02-11T06:57:43.402Z,101814.47
2023-02-11T06:59:21.071Z,101808.06
2023-02-11T07:00:53.094Z,101808.53
2023-02-11T07:02:25.139Z,101800.88
2023-02-11T07:03:57.314Z,101802.34
2023-02-11T07:05:29.452Z,101801.38
2023-02-11T07:07:01.550Z,101804.47
2023-02-11T07:08:34.328Z,101803.53
2023-02-11T07:10:06.953Z,101795.63
2023-02-11T07:11:38.982Z,101798.72
2023-02-11T07:13:11.208Z,101808.50
2023-02-11T07:14:43.282Z,101798.97
2023-02-11T07:16:17.852Z,101797.22
2023-02-11T07:17:49.933Z,101802.84
2023-02-11T07:19:22.143Z,101794.03
2023-02-11T07:20:54.308Z,101792.72
2023-02-11T07:22:26.332Z,101798.44
2023-02-11T07:23:58.393Z,101790.50
2023-02-11T07:25:30.641Z,101789.28
2023-02-11T07:27:02.690Z,101788.97
2023-02-11T07:28:36.166Z,101784.34
2023-02-11T07:30:08.434Z,101790.38
2023-02-11T07:31:40.627Z,101791.34
2023-02-11T07:33:12.725Z,101786.81
2023-02-11T07:34:44.781Z,101790.56
2023-02-11T07:36:17.128Z,101788.53
2023-02-11T07:37:49.154Z,101784.59
2023-02-11T07:39:22.906Z,101789.88
2023-02-11T07:40:54.944Z,101787.53
2023-02-11T07:42:27.007Z,101784.31
2023-02-11T07:43:59.103Z,101786.97
2023-02-11T07:45:31.227Z,101781.09
2023-02-11T07:48:35.360Z,101770.03
2023-02-11T07:50:07.557Z,101788.38
2023-02-11T07:51:39.697Z,101776.31
2023-02-11T07:53:11.761Z,101774.19
2023-02-11T07:54:44.111Z,101778.78
2023-02-11T07:56:18.481Z,101775.00
2023-02-11T07:57:51.234Z,101773.84
2023-02-11T07:59:25.208Z,101770.38
2023-02-11T08:01:02.574Z,101776.41
2023-02-11T08:02:34.900Z,101775.94
2023-02-11T08:04:07.013Z,101779.25
2023-02-11T08:05:39.467Z,101774.69
2023-02-11T08:07:12.872Z,101772.31
2023-02-11T08:08:45.327Z,101772.22
2023-02-11T08:10:17.389Z,101774.47
2023-02-11T08:11:49.404Z,101763.25
2023-02-11T08:13:21.505Z,101761.09
2023-02-11T08:14:53.835Z,101756.66
2023-02-11T08:16:28.775Z,101759.84
2023-02-11T08:18:03.942Z,101754.19
2023-02-11T08:19:36.028Z,101758.41
2023-02-11T08:21:09.646Z,101755.94
2023-02-11T08:22:41.564Z,101751.03
2023-02-11T08:24:13.631Z,101749.34
2023-02-11T08:25:45.650Z,101750.38
2023-02-11T08:27:17.992Z,101748.03
2023-02-11T08:28:52.051Z,101752.03
2023-02-11T08:30:26.356Z,101750.53
2023-02-11T08:31:59.452Z,101755.97
2023-02-11T08:33:31.612Z,101751.25
2023-02-11T08:35:03.769Z,101750.66
2023-02-11T08:36:38.039Z,101749.03
2023-02-11T08:38:10.058Z,101751.84
2023-02-11T08:39:42.203Z,101749.91
2023-02-11T08:41:15.272Z,101746.22
2023-02-11T08:42:47.367Z,101743.22
2023-02-11T08:44:21.431Z,101749.91
2023-02-11T08:45:53.820Z,101746.03
2023-02-11T08:47:26.185Z,101738.84
2023-02-11T08:48:58.272Z,101742.50
2023-02-11T08:50:30.417Z,101741.63
2023-02-11T08:52:04.573Z,101744.00
2023-02-11T08:53:37.260Z,101738.63
2023-02-11T08:55:09.312Z,101747.47
2023-02-11T08:56:41.486Z,101740.19
2023-02-11T08:58:13.590Z,101743.06
2023-02-11T08:59:45.610Z,101739.88
2023-02-11T09:01:26.586Z,101742.06
2023-02-11T09:02:58.652Z,101739.69
2023-02-11T09:04:30.734Z,101734.97
2023-02-11T09:06:06.292Z,101733.16
2023-02-11T09:07:38.383Z,101730.00
2023-02-11T09:09:15.140Z,101734.69
2023-02-11T09:10:47.753Z,101727.38
2023-02-11T09:12:19.779Z,101727.59
2023-02-11T09:13:54.315Z,101727.03
2023-02-11T09:15:26.990Z,101726.31
2023-02-11T09:16:59.280Z,101724.63
2023-02-11T09:18:32.025Z,101724.09
2023-02-11T09:20:04.524Z,101719.16
2023-02-11T09:21:36.655Z,101715.88
2023-02-11T09:23:09.954Z,101717.94
2023-02-11T09:24:41.968Z,101717.28
2023-02-11T09:26:28.521Z,101710.97
2023-02-11T09:28:00.641Z,101710.34
2023-02-11T09:29:32.902Z,101707.06
2023-02-11T09:31:10.480Z,101708.41
2023-02-11T09:32:42.861Z,101704.47
2023-02-11T09:34:16.268Z,101704.91
2023-02-11T09:35:48.384Z,101702.28
2023-02-11T09:37:21.561Z,101701.69
2023-02-11T09:38:54.932Z,101691.78
2023-02-11T09:40:27.014Z,101693.84
2023-02-11T09:42:16.786Z,101679.97
2023-02-11T09:43:50.423Z,101678.50
2023-02-11T09:45:23.627Z,101673.25
2023-02-11T09:46:59.961Z,101675.13
2023-02-11T09:48:39.032Z,101671.19
2023-02-11T09:50:14.057Z,101667.88
2023-02-11T09:51:50.663Z,101661.94
2023-02-11T09:53:27.894Z,101655.50
2023-02-11T09:55:04.895Z,101653.22
2023-02-11T09:56:37.078Z,101644.88
2023-02-11T09:58:27.706Z,101643.03
2023-02-11T10:00:00.056Z,101643.13
2023-02-11T10:01:59.808Z,101641.00
2023-02-11T10:03:46.576Z,101642.06
2023-02-11T10:05:27.291Z,101632.88
2023-02-11T10:07:23.834Z,101638.41
2023-02-11T10:09:33.102Z,101625.94
2023-02-11T10:11:22.700Z,101624.44
2023-02-11T10:13:10.914Z,101616.16
2023-02-11T10:15:01.075Z,101613.16
2023-02-11T10:17:02.559Z,101604.13
2023-02-11T10:18:46.232Z,101609.72
2023-02-11T10:20:32.402Z,101601.28
2023-02-11T10:22:12.710Z,101592.16
2023-02-11T10:23:48.109Z,101583.72
2023-02-11T10:25:24.117Z,101599.38
2023-02-11T10:26:56.140Z,101597.81
2023-02-11T10:28:34.306Z,101582.63
2023-02-11T10:30:15.672Z,101580.63
2023-02-11T10:31:48.201Z,101574.53
2023-02-11T10:33:34.292Z,101565.50
2023-02-11T10:35:15.912Z,101564.69
2023-02-11T10:36:48.121Z,101564.94
2023-02-11T10:38:20.189Z,101562.59
2023-02-11T10:39:52.205Z,101563.56
2023-02-11T10:41:31.006Z,101552.81
2023-02-11T10:43:08.901Z,101545.16
2023-02-11T10:44:55.758Z,101549.66
2023-02-11T10:46:33.568Z,101540.31
2023-02-11T10:48:07.139Z,101546.38
2023-02-11T10:49:42.984Z,101546.81
2023-02-11T10:51:26.507Z,101536.78
2023-02-11T10:53:20.100Z,101532.59
2023-02-11T10:55:02.428Z,101527.19
2023-02-11T10:56:37.114Z,101528.75
2023-02-11T10:58:24.612Z,101534.06
2023-02-11T11:00:05.693Z,101526.63
2023-02-11T11:01:41.154Z,101527.53
2023-02-11T11:03:39.475Z,101514.97
2023-02-11T11:05:27.732Z,101520.28
2023-02-11T11:07:20.827Z,101514.53
2023-02-11T11:08:52.926Z,101519.25
2023-02-11T11:10:37.172Z,101511.56
2023-02-11T11:12:42.339Z,101520.22
2023-02-11T11:14:20.830Z,101508.34
2023-02-11T11:16:07.505Z,101510.31
2023-02-11T11:17:39.599Z,101511.38
2023-02-11T11:19:13.682Z,101512.31
2023-02-11T11:21:01.072Z,101504.84
2023-02-11T11:22:33.192Z,101500.06
2023-02-11T11:24:05.473Z,101495.84
2023-02-11T11:25:40.240Z,101495.38
2023-02-11T11:27:19.144Z,101493.31
2023-02-11T11:28:55.211Z,101490.59
2023-02-11T11:30:54.580Z,101489.34
2023-02-11T11:32:36.261Z,101485.97
2023-02-11T11:34:38.584Z,101486.56
2023-02-11T11:36:13.479Z,101485.63
2023-02-11T11:37:46.421Z,101478.88
2023-02-11T11:39:31.259Z,101474.97
2023-02-11T11:41:16.779Z,101474.19
2023-02-11T11:43:05.050Z,101473.41
2023-02-11T11:44:40.181Z,101466.00
2023-02-11T11:46:26.967Z,101462.59
2023-02-11T11:48:19.115Z,101455.88
2023-02-11T11:50:11.746Z,101451.78
2023-02-11T11:51:49.169Z,101454.03
2023-02-11T11:55:31.863Z,101457.97
2023-02-11T11:57:17.105Z,101452.69
2023-02-11T11:58:50.489Z,101451.72
2023-02-11T12:00:30.176Z,101452.13
2023-02-11T12:02:32.274Z,101450.47
2023-02-11T12:04:32.017Z,101445.00
2023-02-11T12:06:22.718Z,101443.22
2023-02-11T12:08:22.060Z,101439.38
2023-02-11T12:09:56.766Z,101433.75
2023-02-11T12:11:36.538Z,101424.50
2023-02-11T12:13:18.676Z,101419.44
2023-02-11T12:15:09.302Z,101430.53
2023-02-11T12:17:24.341Z,101410.09
2023-02-11T12:19:19.668Z,101409.31
2023-02-11T12:21:10.209Z,101401.75
2023-02-11T12:23:00.033Z,101403.69
2023-02-11T12:24:53.657Z,101398.97
2023-02-11T12:26:48.553Z,101394.72
2023-02-11T12:28:46.196Z,101399.38
2023-02-11T12:30:24.267Z,101394.72
2023-02-11T12:32:21.990Z,101386.63
2023-02-11T12:34:23.102Z,101389.00
2023-02-11T12:35:59.096Z,101385.84
2023-02-11T12:37:42.954Z,101382.56
2023-02-11T12:39:35.352Z,101373.34
2023-02-11T12:41:53.531Z,101378.72
2023-02-11T12:43:35.052Z,101374.91
2023-02-11T12:45:10.016Z,101367.69
2023-02-11T12:47:07.060Z,101375.34
2023-02-11T12:49:06.304Z,101370.16
2023-02-11T12:50:53.758Z,101363.41
2023-02-11T12:52:33.393Z,101362.28
2023-02-11T12:54:52.389Z,101359.00
2023-02-11T12:56:40.936Z,101360.28
2023-02-11T12:58:16.922Z,101359.25
2023-02-11T12:59:57.004Z,101360.16
2023-02-11T13:01:36.373Z,101352.16
2023-02-11T13:03:21.499Z,101357.06
2023-02-11T13:05:19.173Z,101353.41
2023-02-11T13:07:05.788Z,101354.50
2023-02-11T13:08:43.186Z,101347.56
2023-02-11T13:10:15.993Z,101354.50
2023-02-11T13:11:52.286Z,101349.59
2023-02-11T13:13:32.171Z,101347.75
2023-02-11T13:15:07.824Z,101343.16
2023-02-11T13:16:42.700Z,101347.69
2023-02-11T13:18:27.186Z,101340.72
2023-02-11T13:20:03.710Z,101333.38
2023-02-11T13:22:13.541Z,101341.56
2023-02-11T13:24:16.357Z,101334.25
2023-02-11T13:25:51.648Z,101338.88
2023-02-11T13:27:38.187Z,101330.94
2023-02-11T13:29:28.082Z,101335.06
2023-02-11T13:31:04.311Z,101325.63
2023-02-11T13:32:54.978Z,101329.09
2023-02-11T13:34:47.005Z,101329.22
2023-02-11T13:36:26.895Z,101324.84
2023-02-11T13:38:04.665Z,101321.53
2023-02-11T13:39:36.660Z,101321.47
2023-02-11T13:41:25.005Z,101319.28
2023-02-11T13:42:59.014Z,101315.13
2023-02-11T13:44:34.329Z,101320.06
2023-02-11T13:46:10.455Z,101310.75
2023-02-11T13:47:42.593Z,101309.09
2023-02-11T13:49:25.391Z,101304.66
2023-02-11T13:51:03.527Z,101300.09
2023-02-11T13:52:37.859Z,101302.06
2023-02-11T13:55:48.098Z,101296.63
2023-02-11T13:57:20.046Z,101295.78
2023-02-11T13:58:52.125Z,101296.63
2023-02-11T14:00:36.522Z,101293.16
2023-02-11T14:02:48.753Z,101301.81
2023-02-11T14:04:43.917Z,101304.31
2023-02-11T14:06:38.324Z,101296.06
2023-02-11T14:08:28.876Z,101293.06
2023-02-11T14:10:00.885Z,101294.66
2023-02-11T14:11:37.417Z,101297.22
2023-02-11T14:13:31.802Z,101298.63
2023-02-11T14:15:07.995Z,101291.06
2023-02-11T14:17:00.220Z,101291.25
2023-02-11T14:18:59.845Z,101290.19
2023-02-11T14:20:40.930Z,101280.28
2023-02-11T14:22:48.085Z,101285.25
2023-02-11T14:24:20.628Z,101281.66
2023-02-11T14:26:02.140Z,101280.84
2023-02-11T14:27:44.376Z,101281.03
2023-02-11T14:29:17.888Z,101275.25
2023-02-11T14:31:14.417Z,101279.66
2023-02-11T15:24:01.937Z,101253.75
2023-02-11T15:25:34.443Z,101260.22
2023-02-11T15:27:13.054Z,101258.47
2023-02-11T15:28:52.438Z,101259.09
2023-02-11T15:30:27.605Z,101265.78
2023-02-11T15:32:18.786Z,101255.50
2023-02-11T15:33:51.988Z,101264.66
2023-02-11T15:35:36.990Z,101266.41
2023-02-11T15:37:14.824Z,101267.19
2023-02-11T15:38:47.138Z,101255.78
2023-02-11T15:40:23.242Z,101260.09
2023-02-11T15:41:55.718Z,101261.63
2023-02-11T15:43:46.065Z,101256.50
2023-02-11T15:45:18.165Z,101258.78
2023-02-11T15:46:50.364Z,101254.31
2023-02-11T15:48:27.162Z,101254.00
2023-02-11T15:49:59.639Z,101258.44
2023-02-11T15:51:37.048Z,101250.31
2023-02-11T15:53:23.524Z,101245.78
2023-02-11T15:54:57.055Z,101242.72
2023-02-11T15:56:30.180Z,101245.84
2023-02-11T15:58:02.539Z,101248.81
2023-02-11T15:59:41.458Z,101243.44
2023-02-11T16:01:13.807Z,101244.66
2023-02-11T16:02:46.421Z,101240.16
2023-02-11T16:04:21.136Z,101246.66
2023-02-11T16:05:53.208Z,101242.06
2023-02-11T16:07:57.690Z,101247.75
2023-02-11T16:09:35.421Z,101248.16
2023-02-11T16:11:10.092Z,101245.16
2023-02-11T16:12:42.117Z,101233.78
2023-02-11T16:14:27.614Z,101236.13
2023-02-11T16:16:24.770Z,101239.16
2023-02-11T16:17:57.219Z,101245.59
2023-02-11T16:19:29.447Z,101245.34
2023-02-11T16:21:02.677Z,101251.00
2023-02-11T16:22:38.395Z,101255.66
2023-02-11T16:24:22.039Z,101251.13
2023-02-11T16:26:01.889Z,101250.88
2023-02-11T16:27:38.977Z,101244.63
2023-02-11T16:29:14.380Z,101245.38
2023-02-11T16:30:46.527Z,101242.56
2023-02-11T16:32:21.159Z,101247.56
2023-02-11T16:33:53.157Z,101238.63
2023-02-11T16:35:25.224Z,101240.31
2023-02-11T16:36:57.241Z,101241.06
2023-02-11T16:38:30.361Z,101239.28
2023-02-11T16:40:02.517Z,101232.19
2023-02-11T16:41:34.760Z,101238.81
2023-02-11T16:43:06.964Z,101242.03
2023-02-11T16:44:42.843Z,101238.53
2023-02-11T16:46:16.129Z,101241.66
2023-02-11T16:47:48.295Z,101242.97
2023-02-11T16:49:25.364Z,101236.16
2023-02-11T16:50:57.751Z,101244.38
2023-02-11T16:52:32.082Z,101245.94
2023-02-11T16:54:04.443Z,101239.00
2023-02-11T16:55:36.550Z,101228.75
2023-02-11T16:57:34.908Z,101223.72
2023-02-11T16:59:07.176Z,101233.59
2023-02-11T17:00:39.445Z,101231.78
2023-02-11T17:02:23.906Z,101221.59
2023-02-11T17:03:56.219Z,101227.16
2023-02-11T17:05:28.503Z,101227.88
2023-02-11T17:07:00.558Z,101224.31
2023-02-11T17:08:32.928Z,101225.91
2023-02-11T17:10:27.525Z,101220.72
2023-02-11T17:11:59.665Z,101216.59
2023-02-11T17:13:32.074Z,101228.88
2023-02-11T17:15:06.638Z,101232.22
2023-02-11T17:16:39.882Z,101223.50
2023-02-11T17:18:15.187Z,101231.91
2023-02-11T17:19:48.223Z,101219.72
2023-02-11T17:21:20.360Z,101218.69
2023-02-11T17:22:52.936Z,101221.22
2023-02-11T17:24:25.147Z,101228.72
2023-02-11T17:25:57.599Z,101212.44
2023-02-11T17:27:29.655Z,101221.78
2023-02-11T17:29:01.835Z,101221.72
2023-02-11T17:30:34.016Z,101225.06
2023-02-11T17:32:08.579Z,101220.69
2023-02-11T17:33:41.004Z,101215.19
2023-02-11T17:35:13.055Z,101205.66
2023-02-11T17:36:45.339Z,101211.59
2023-02-11T17:38:19.868Z,101210.66
2023-02-11T17:39:52.097Z,101216.28
2023-02-11T17:41:24.541Z,101207.88
2023-02-11T17:42:56.510Z,101204.22
2023-02-11T17:44:28.609Z,101209.88
2023-02-11T17:46:00.998Z,101218.22
2023-02-11T17:47:33.412Z,101206.16
2023-02-11T17:49:05.972Z,101205.94
2023-02-11T17:50:38.139Z,101208.88
2023-02-11T17:52:11.456Z,101214.59
2023-02-11T17:53:43.630Z,101215.25
2023-02-11T17:55:15.831Z,101211.81
2023-02-11T17:56:50.969Z,101218.72
2023-02-11T17:58:23.978Z,101209.34
2023-02-11T17:59:56.102Z,101218.31
2023-02-11T18:01:29.494Z,101218.59
2023-02-11T18:03:04.422Z,101227.69
2023-02-11T18:04:36.865Z,101213.09
2023-02-11T18:06:08.938Z,101213.88
2023-02-11T18:07:41.055Z,101207.91
2023-02-11T18:09:13.404Z,101207.16
2023-02-11T18:10:45.852Z,101212.91
2023-02-11T18:12:25.475Z,101213.00
2023-02-11T18:14:01.851Z,101204.44
2023-02-11T18:15:34.273Z,101203.47
2023-02-11T18:17:06.582Z,101195.84
2023-02-11T18:18:38.638Z,101196.66
2023-02-11T18:20:11.168Z,101199.97
2023-02-11T18:21:43.519Z,101195.53
2023-02-11T18:23:15.692Z,101195.19
2023-02-11T18:24:54.965Z,101191.72
2023-02-11T18:26:28.395Z,101197.41
2023-02-11T18:28:00.643Z,101199.28
2023-02-11T18:29:32.871Z,101191.56
2023-02-11T18:31:05.991Z,101197.59
2023-02-11T18:32:38.102Z,101195.69
2023-02-11T18:34:11.351Z,101192.97
2023-02-11T18:35:43.771Z,101195.44
2023-02-11T18:38:53.875Z,101189.16
2023-02-11T18:40:26.104Z,101190.03
2023-02-11T18:41:59.277Z,101190.91
2023-02-11T18:43:34.752Z,101190.28
2023-02-11T18:45:09.884Z,101194.72
2023-02-11T18:46:42.015Z,101191.25
2023-02-11T18:48:14.797Z,101186.94
2023-02-11T18:49:46.828Z,101184.47
2023-02-11T18:51:19.317Z,101188.69
2023-02-11T18:52:51.372Z,101195.38
2023-02-11T18:54:23.548Z,101185.91
2023-02-11T18:55:55.825Z,101193.44
2023-02-11T18:57:28.112Z,101190.72
2023-02-11T18:59:01.669Z,101183.06
2023-02-11T19:00:33.861Z,101176.53
2023-02-11T19:02:05.945Z,101177.06
2023-02-11T19:03:38.253Z,101175.34
2023-02-11T19:05:10.397Z,101180.44
2023-02-11T19:06:45.360Z,101175.16
2023-02-11T19:08:17.579Z,101171.84
2023-02-11T19:09:49.649Z,101169.94
2023-02-11T19:11:41.947Z,101168.75
2023-02-11T19:13:14.447Z,101167.88
2023-02-11T19:14:46.486Z,101158.50
2023-02-11T19:16:20.155Z,101161.66
2023-02-11T19:17:52.384Z,101167.53
2023-02-11T19:19:27.242Z,101157.41
2023-02-11T19:20:59.356Z,101155.47
2023-02-11T19:24:08.310Z,101150.06
2023-02-11T19:25:47.318Z,101158.78
2023-02-11T19:27:19.369Z,101156.00
2023-02-11T19:28:51.501Z,101161.81
2023-02-11T19:30:23.613Z,101151.47